sensor_id;sensor_type;location;lat;lon;timestamp;P1;durP1;ratioP1;P2;durP2;ratioP2
61435;SDS011;47304;47.456;19.160;2024-01-30T00:01:12;25.30;;;13.30;;
61435;SDS011;47304;47.456;19.160;2024-01-30T00:03:40;29.70;;;13.60;;
61435;SDS011;47304;47.456;19.160;2024-01-30T00:06:10;22.30;;;11.20;;
61435;SDS011;47304;47.456;19.160;2024-01-30T00:08:38;28.90;;;13.30;;
61435;SDS011;47304;47.456;19.160;2024-01-30T00:11:08;22.90;;;9.90;;
61435;SDS011;47304;47.456;19.160;2024-01-30T00:13:36;24.40;;;12.60;;
61435;SDS011;47304;47.456;19.160;2024-01-30T00:16:05;26.20;;;12.70;;
61435;SDS011;47304;47.456;19.160;2024-01-30T00:18:34;27.50;;;13.10;;
61435;SDS011;47304;47.456;19.160;2024-01-30T00:21:02;30.70;;;14.20;;
61435;SDS011;47304;47.456;19.160;2024-01-30T00:23:31;25.30;;;11.00;;
61435;SDS011;47304;47.456;19.160;2024-01-30T00:25:59;28.70;;;14.00;;
61435;SDS011;47304;47.456;19.160;2024-01-30T00:28:27;24.10;;;9.70;;
61435;SDS011;47304;47.456;19.160;2024-01-30T00:30:55;25.00;;;13.10;;
61435;SDS011;47304;47.456;19.160;2024-01-30T00:33:23;28.70;;;13.90;;
61435;SDS011;47304;47.456;19.160;2024-01-30T00:35:52;24.90;;;13.60;;
61435;SDS011;47304;47.456;19.160;2024-01-30T00:38:20;29.70;;;13.60;;
61435;SDS011;47304;47.456;19.160;2024-01-30T00:40:48;30.30;;;14.40;;
61435;SDS011;47304;47.456;19.160;2024-01-30T00:43:16;24.80;;;11.10;;
61435;SDS011;47304;47.456;19.160;2024-01-30T00:45:44;30.00;;;14.40;;
61435;SDS011;47304;47.456;19.160;2024-01-30T00:48:12;30.70;;;14.80;;
61435;SDS011;47304;47.456;19.160;2024-01-30T00:50:41;26.50;;;13.50;;
61435;SDS011;47304;47.456;19.160;2024-01-30T00:53:09;27.80;;;12.50;;
61435;SDS011;47304;47.456;19.160;2024-01-30T00:55:37;26.80;;;13.20;;
61435;SDS011;47304;47.456;19.160;2024-01-30T00:58:05;23.20;;;11.40;;
61435;SDS011;47304;47.456;19.160;2024-01-30T01:00:34;25.10;;;13.00;;
61435;SDS011;47304;47.456;19.160;2024-01-30T01:03:02;28.40;;;12.90;;
61435;SDS011;47304;47.456;19.160;2024-01-30T01:05:31;32.00;;;15.00;;
61435;SDS011;47304;47.456;19.160;2024-01-30T01:07:59;27.50;;;14.70;;
61435;SDS011;47304;47.456;19.160;2024-01-30T01:10:27;31.30;;;14.30;;
61435;SDS011;47304;47.456;19.160;2024-01-30T01:12:56;25.60;;;13.80;;
61435;SDS011;47304;47.456;19.160;2024-01-30T01:15:24;26.70;;;13.90;;
61435;SDS011;47304;47.456;19.160;2024-01-30T01:17:52;27.50;;;13.80;;
61435;SDS011;47304;47.456;19.160;2024-01-30T01:20:20;33.90;;;15.50;;
61435;SDS011;47304;47.456;19.160;2024-01-30T01:22:48;29.10;;;14.40;;
61435;SDS011;47304;47.456;19.160;2024-01-30T01:25:17;30.90;;;15.30;;
61435;SDS011;47304;47.456;19.160;2024-01-30T01:27:45;29.60;;;15.20;;
61435;SDS011;47304;47.456;19.160;2024-01-30T01:30:14;29.00;;;14.60;;
61435;SDS011;47304;47.456;19.160;2024-01-30T01:32:42;29.10;;;15.20;;
61435;SDS011;47304;47.456;19.160;2024-01-30T01:35:10;31.00;;;14.60;;
61435;SDS011;47304;47.456;19.160;2024-01-30T01:37:39;29.10;;;15.10;;
61435;SDS011;47304;47.456;19.160;2024-01-30T01:40:09;28.20;;;12.90;;
61435;SDS011;47304;47.456;19.160;2024-01-30T01:42:39;29.60;;;15.10;;
61435;SDS011;47304;47.456;19.160;2024-01-30T01:45:08;30.20;;;13.80;;
61435;SDS011;47304;47.456;19.160;2024-01-30T01:47:36;20.70;;;10.80;;
61435;SDS011;47304;47.456;19.160;2024-01-30T01:50:05;23.50;;;11.40;;
61435;SDS011;47304;47.456;19.160;2024-01-30T01:52:33;22.30;;;11.70;;
61435;SDS011;47304;47.456;19.160;2024-01-30T01:55:02;23.60;;;13.20;;
61435;SDS011;47304;47.456;19.160;2024-01-30T01:57:33;32.80;;;14.80;;
61435;SDS011;47304;47.456;19.160;2024-01-30T02:00:01;26.10;;;13.20;;
61435;SDS011;47304;47.456;19.160;2024-01-30T02:02:31;28.20;;;12.80;;
61435;SDS011;47304;47.456;19.160;2024-01-30T02:05:03;30.30;;;15.30;;
61435;SDS011;47304;47.456;19.160;2024-01-30T02:07:32;34.10;;;15.70;;
61435;SDS011;47304;47.456;19.160;2024-01-30T02:10:00;27.70;;;14.70;;
61435;SDS011;47304;47.456;19.160;2024-01-30T02:12:29;32.60;;;15.80;;
61435;SDS011;47304;47.456;19.160;2024-01-30T02:14:57;31.90;;;16.60;;
61435;SDS011;47304;47.456;19.160;2024-01-30T02:17:26;29.90;;;14.20;;
61435;SDS011;47304;47.456;19.160;2024-01-30T02:19:54;34.90;;;15.90;;
61435;SDS011;47304;47.456;19.160;2024-01-30T02:22:22;34.50;;;15.30;;
61435;SDS011;47304;47.456;19.160;2024-01-30T02:24:51;30.80;;;13.30;;
61435;SDS011;47304;47.456;19.160;2024-01-30T02:27:19;36.40;;;16.80;;
61435;SDS011;47304;47.456;19.160;2024-01-30T02:29:48;34.20;;;15.20;;
61435;SDS011;47304;47.456;19.160;2024-01-30T02:32:16;33.90;;;14.40;;
61435;SDS011;47304;47.456;19.160;2024-01-30T02:34:44;37.30;;;16.90;;
61435;SDS011;47304;47.456;19.160;2024-01-30T02:37:13;32.60;;;16.40;;
61435;SDS011;47304;47.456;19.160;2024-01-30T02:39:41;34.00;;;15.60;;
61435;SDS011;47304;47.456;19.160;2024-01-30T02:42:09;34.50;;;14.90;;
61435;SDS011;47304;47.456;19.160;2024-01-30T02:44:38;32.00;;;16.30;;
61435;SDS011;47304;47.456;19.160;2024-01-30T02:47:06;30.30;;;16.20;;
61435;SDS011;47304;47.456;19.160;2024-01-30T02:49:34;32.70;;;15.10;;
61435;SDS011;47304;47.456;19.160;2024-01-30T02:52:03;30.40;;;15.20;;
61435;SDS011;47304;47.456;19.160;2024-01-30T02:54:31;31.00;;;15.20;;
61435;SDS011;47304;47.456;19.160;2024-01-30T02:57:00;37.20;;;17.60;;
61435;SDS011;47304;47.456;19.160;2024-01-30T02:59:28;29.10;;;17.20;;
61435;SDS011;47304;47.456;19.160;2024-01-30T03:01:56;32.90;;;16.20;;
61435;SDS011;47304;47.456;19.160;2024-01-30T03:04:24;33.10;;;16.60;;
61435;SDS011;47304;47.456;19.160;2024-01-30T03:06:53;32.10;;;15.70;;
61435;SDS011;47304;47.456;19.160;2024-01-30T03:09:21;31.40;;;15.50;;
61435;SDS011;47304;47.456;19.160;2024-01-30T03:11:50;31.30;;;16.20;;
61435;SDS011;47304;47.456;19.160;2024-01-30T03:14:18;36.00;;;16.50;;
61435;SDS011;47304;47.456;19.160;2024-01-30T03:16:46;28.00;;;14.40;;
61435;SDS011;47304;47.456;19.160;2024-01-30T03:19:14;27.10;;;13.70;;
61435;SDS011;47304;47.456;19.160;2024-01-30T03:21:42;31.00;;;15.80;;
61435;SDS011;47304;47.456;19.160;2024-01-30T03:24:11;28.30;;;15.50;;
61435;SDS011;47304;47.456;19.160;2024-01-30T03:26:39;29.20;;;15.00;;
61435;SDS011;47304;47.456;19.160;2024-01-30T03:29:07;26.80;;;15.00;;
61435;SDS011;47304;47.456;19.160;2024-01-30T03:31:35;27.40;;;15.00;;
61435;SDS011;47304;47.456;19.160;2024-01-30T03:34:04;27.90;;;13.80;;
61435;SDS011;47304;47.456;19.160;2024-01-30T03:36:32;33.00;;;15.70;;
61435;SDS011;47304;47.456;19.160;2024-01-30T03:39:00;30.40;;;14.70;;
61435;SDS011;47304;47.456;19.160;2024-01-30T03:41:28;29.60;;;14.70;;
61435;SDS011;47304;47.456;19.160;2024-01-30T03:43:56;31.70;;;15.80;;
61435;SDS011;47304;47.456;19.160;2024-01-30T03:46:25;32.10;;;16.30;;
61435;SDS011;47304;47.456;19.160;2024-01-30T03:48:53;29.60;;;14.40;;
61435;SDS011;47304;47.456;19.160;2024-01-30T03:51:21;32.00;;;14.90;;
61435;SDS011;47304;47.456;19.160;2024-01-30T03:53:50;31.10;;;16.40;;
61435;SDS011;47304;47.456;19.160;2024-01-30T03:56:18;32.00;;;16.00;;
61435;SDS011;47304;47.456;19.160;2024-01-30T03:58:47;27.90;;;14.80;;
61435;SDS011;47304;47.456;19.160;2024-01-30T04:01:15;29.70;;;14.50;;
61435;SDS011;47304;47.456;19.160;2024-01-30T04:03:43;32.50;;;15.20;;
61435;SDS011;47304;47.456;19.160;2024-01-30T04:06:11;26.70;;;14.00;;
61435;SDS011;47304;47.456;19.160;2024-01-30T04:08:39;34.30;;;15.40;;
61435;SDS011;47304;47.456;19.160;2024-01-30T04:11:08;32.40;;;16.20;;
61435;SDS011;47304;47.456;19.160;2024-01-30T04:13:36;30.50;;;15.60;;
61435;SDS011;47304;47.456;19.160;2024-01-30T04:16:05;27.30;;;14.50;;
61435;SDS011;47304;47.456;19.160;2024-01-30T04:18:33;26.20;;;13.70;;
61435;SDS011;47304;47.456;19.160;2024-01-30T04:21:02;29.40;;;14.90;;
61435;SDS011;47304;47.456;19.160;2024-01-30T04:23:30;29.40;;;15.70;;
61435;SDS011;47304;47.456;19.160;2024-01-30T04:25:58;30.80;;;14.70;;
61435;SDS011;47304;47.456;19.160;2024-01-30T04:28:26;26.10;;;13.10;;
61435;SDS011;47304;47.456;19.160;2024-01-30T04:30:55;33.30;;;15.40;;
61435;SDS011;47304;47.456;19.160;2024-01-30T04:33:23;32.60;;;14.50;;
61435;SDS011;47304;47.456;19.160;2024-01-30T04:35:51;24.40;;;12.60;;
61435;SDS011;47304;47.456;19.160;2024-01-30T04:38:19;27.10;;;13.70;;
61435;SDS011;47304;47.456;19.160;2024-01-30T04:40:48;26.80;;;14.00;;
61435;SDS011;47304;47.456;19.160;2024-01-30T04:43:16;27.60;;;13.30;;
61435;SDS011;47304;47.456;19.160;2024-01-30T04:45:44;25.90;;;14.00;;
61435;SDS011;47304;47.456;19.160;2024-01-30T04:48:12;27.50;;;13.70;;
61435;SDS011;47304;47.456;19.160;2024-01-30T04:50:41;25.40;;;12.70;;
61435;SDS011;47304;47.456;19.160;2024-01-30T04:53:09;29.40;;;13.60;;
61435;SDS011;47304;47.456;19.160;2024-01-30T04:55:37;24.60;;;13.50;;
61435;SDS011;47304;47.456;19.160;2024-01-30T04:58:06;27.60;;;13.10;;
61435;SDS011;47304;47.456;19.160;2024-01-30T05:00:34;29.10;;;12.10;;
61435;SDS011;47304;47.456;19.160;2024-01-30T05:03:02;27.00;;;13.40;;
61435;SDS011;47304;47.456;19.160;2024-01-30T05:05:31;26.80;;;13.10;;
61435;SDS011;47304;47.456;19.160;2024-01-30T05:07:59;25.30;;;13.20;;
61435;SDS011;47304;47.456;19.160;2024-01-30T05:10:27;24.70;;;12.60;;
61435;SDS011;47304;47.456;19.160;2024-01-30T05:12:55;27.20;;;13.70;;
61435;SDS011;47304;47.456;19.160;2024-01-30T05:15:24;26.60;;;12.70;;
61435;SDS011;47304;47.456;19.160;2024-01-30T05:17:52;27.90;;;12.90;;
61435;SDS011;47304;47.456;19.160;2024-01-30T05:20:20;26.80;;;13.30;;
61435;SDS011;47304;47.456;19.160;2024-01-30T05:22:49;29.10;;;14.80;;
61435;SDS011;47304;47.456;19.160;2024-01-30T05:25:17;24.40;;;13.50;;
61435;SDS011;47304;47.456;19.160;2024-01-30T05:27:45;28.20;;;13.10;;
61435;SDS011;47304;47.456;19.160;2024-01-30T05:30:14;24.80;;;13.40;;
61435;SDS011;47304;47.456;19.160;2024-01-30T05:32:43;24.20;;;12.60;;
61435;SDS011;47304;47.456;19.160;2024-01-30T05:35:14;27.10;;;12.60;;
61435;SDS011;47304;47.456;19.160;2024-01-30T05:37:43;29.00;;;13.90;;
61435;SDS011;47304;47.456;19.160;2024-01-30T05:40:12;25.50;;;13.40;;
61435;SDS011;47304;47.456;19.160;2024-01-30T05:42:41;25.20;;;13.20;;
61435;SDS011;47304;47.456;19.160;2024-01-30T05:45:10;23.30;;;12.40;;
61435;SDS011;47304;47.456;19.160;2024-01-30T05:47:38;24.10;;;12.10;;
61435;SDS011;47304;47.456;19.160;2024-01-30T05:50:07;22.90;;;11.20;;
61435;SDS011;47304;47.456;19.160;2024-01-30T05:52:36;31.40;;;13.70;;
61435;SDS011;47304;47.456;19.160;2024-01-30T05:55:04;28.00;;;13.60;;
61435;SDS011;47304;47.456;19.160;2024-01-30T05:57:34;25.70;;;13.10;;
61435;SDS011;47304;47.456;19.160;2024-01-30T06:00:03;23.00;;;11.80;;
61435;SDS011;47304;47.456;19.160;2024-01-30T06:02:32;22.80;;;11.40;;
61435;SDS011;47304;47.456;19.160;2024-01-30T06:05:00;29.10;;;13.20;;
61435;SDS011;47304;47.456;19.160;2024-01-30T06:07:28;25.50;;;12.80;;
61435;SDS011;47304;47.456;19.160;2024-01-30T06:09:57;25.30;;;12.50;;
61435;SDS011;47304;47.456;19.160;2024-01-30T06:12:25;25.40;;;11.40;;
61435;SDS011;47304;47.456;19.160;2024-01-30T06:14:54;27.00;;;12.10;;
61435;SDS011;47304;47.456;19.160;2024-01-30T06:17:22;21.30;;;10.70;;
61435;SDS011;47304;47.456;19.160;2024-01-30T06:19:50;26.70;;;13.00;;
61435;SDS011;47304;47.456;19.160;2024-01-30T06:22:18;34.80;;;17.00;;
61435;SDS011;47304;47.456;19.160;2024-01-30T06:24:47;32.50;;;16.40;;
61435;SDS011;47304;47.456;19.160;2024-01-30T06:27:15;35.80;;;16.50;;
61435;SDS011;47304;47.456;19.160;2024-01-30T06:29:43;36.10;;;17.40;;
61435;SDS011;47304;47.456;19.160;2024-01-30T06:32:12;33.50;;;16.00;;
61435;SDS011;47304;47.456;19.160;2024-01-30T06:34:40;36.50;;;17.40;;
61435;SDS011;47304;47.456;19.160;2024-01-30T06:37:08;35.80;;;18.20;;
61435;SDS011;47304;47.456;19.160;2024-01-30T06:39:36;35.20;;;18.20;;
61435;SDS011;47304;47.456;19.160;2024-01-30T06:42:05;34.70;;;18.90;;
61435;SDS011;47304;47.456;19.160;2024-01-30T06:44:33;42.10;;;19.70;;
61435;SDS011;47304;47.456;19.160;2024-01-30T06:47:01;41.10;;;19.30;;
61435;SDS011;47304;47.456;19.160;2024-01-30T06:49:30;41.60;;;21.40;;
61435;SDS011;47304;47.456;19.160;2024-01-30T06:51:58;43.60;;;22.30;;
61435;SDS011;47304;47.456;19.160;2024-01-30T06:54:26;41.70;;;20.60;;
61435;SDS011;47304;47.456;19.160;2024-01-30T06:56:54;42.00;;;21.30;;
61435;SDS011;47304;47.456;19.160;2024-01-30T06:59:22;43.80;;;20.90;;
61435;SDS011;47304;47.456;19.160;2024-01-30T07:01:51;37.90;;;20.40;;
61435;SDS011;47304;47.456;19.160;2024-01-30T07:04:19;39.40;;;20.20;;
61435;SDS011;47304;47.456;19.160;2024-01-30T07:06:47;43.70;;;19.90;;
61435;SDS011;47304;47.456;19.160;2024-01-30T07:09:15;35.80;;;18.60;;
61435;SDS011;47304;47.456;19.160;2024-01-30T07:11:43;36.80;;;18.60;;
61435;SDS011;47304;47.456;19.160;2024-01-30T07:14:12;41.00;;;19.60;;
61435;SDS011;47304;47.456;19.160;2024-01-30T07:16:40;35.70;;;18.90;;
61435;SDS011;47304;47.456;19.160;2024-01-30T07:19:08;36.60;;;18.90;;
61435;SDS011;47304;47.456;19.160;2024-01-30T07:21:36;40.40;;;19.50;;
61435;SDS011;47304;47.456;19.160;2024-01-30T07:24:05;42.00;;;21.90;;
61435;SDS011;47304;47.456;19.160;2024-01-30T07:26:33;43.30;;;24.00;;
61435;SDS011;47304;47.456;19.160;2024-01-30T07:29:02;56.50;;;26.70;;
61435;SDS011;47304;47.456;19.160;2024-01-30T07:31:31;62.70;;;30.30;;
61435;SDS011;47304;47.456;19.160;2024-01-30T07:33:59;64.70;;;29.10;;
61435;SDS011;47304;47.456;19.160;2024-01-30T07:36:28;45.70;;;23.10;;
61435;SDS011;47304;47.456;19.160;2024-01-30T07:38:56;57.50;;;28.90;;
61435;SDS011;47304;47.456;19.160;2024-01-30T07:41:25;51.00;;;24.00;;
61435;SDS011;47304;47.456;19.160;2024-01-30T07:43:53;39.50;;;21.40;;
61435;SDS011;47304;47.456;19.160;2024-01-30T07:46:21;39.00;;;21.10;;
61435;SDS011;47304;47.456;19.160;2024-01-30T07:48:52;46.70;;;22.80;;
61435;SDS011;47304;47.456;19.160;2024-01-30T07:51:20;57.80;;;29.20;;
61435;SDS011;47304;47.456;19.160;2024-01-30T07:53:48;51.20;;;26.10;;
61435;SDS011;47304;47.456;19.160;2024-01-30T07:56:19;39.80;;;21.10;;
61435;SDS011;47304;47.456;19.160;2024-01-30T07:58:47;37.00;;;19.50;;
61435;SDS011;47304;47.456;19.160;2024-01-30T08:01:15;36.20;;;18.70;;
61435;SDS011;47304;47.456;19.160;2024-01-30T08:03:44;35.30;;;19.50;;
61435;SDS011;47304;47.456;19.160;2024-01-30T08:06:12;35.70;;;19.10;;
61435;SDS011;47304;47.456;19.160;2024-01-30T08:08:40;35.70;;;21.40;;
61435;SDS011;47304;47.456;19.160;2024-01-30T08:11:08;37.10;;;20.40;;
61435;SDS011;47304;47.456;19.160;2024-01-30T08:13:36;34.90;;;17.80;;
61435;SDS011;47304;47.456;19.160;2024-01-30T08:16:05;32.60;;;17.90;;
61435;SDS011;47304;47.456;19.160;2024-01-30T08:18:33;33.00;;;17.00;;
61435;SDS011;47304;47.456;19.160;2024-01-30T08:21:02;34.70;;;16.80;;
61435;SDS011;47304;47.456;19.160;2024-01-30T08:23:31;31.70;;;15.40;;
61435;SDS011;47304;47.456;19.160;2024-01-30T08:25:59;32.20;;;17.50;;
61435;SDS011;47304;47.456;19.160;2024-01-30T08:28:27;29.50;;;16.50;;
61435;SDS011;47304;47.456;19.160;2024-01-30T08:30:55;28.70;;;16.10;;
61435;SDS011;47304;47.456;19.160;2024-01-30T08:33:23;25.30;;;14.10;;
61435;SDS011;47304;47.456;19.160;2024-01-30T08:35:52;27.20;;;14.40;;
61435;SDS011;47304;47.456;19.160;2024-01-30T08:38:20;25.10;;;14.00;;
61435;SDS011;47304;47.456;19.160;2024-01-30T08:40:48;25.70;;;12.70;;
61435;SDS011;47304;47.456;19.160;2024-01-30T08:43:16;24.50;;;14.40;;
61435;SDS011;47304;47.456;19.160;2024-01-30T08:45:44;27.00;;;14.70;;
61435;SDS011;47304;47.456;19.160;2024-01-30T08:48:13;27.10;;;13.70;;
61435;SDS011;47304;47.456;19.160;2024-01-30T08:50:41;22.50;;;13.20;;
61435;SDS011;47304;47.456;19.160;2024-01-30T08:53:09;23.90;;;15.00;;
61435;SDS011;47304;47.456;19.160;2024-01-30T08:55:37;25.90;;;15.50;;
61435;SDS011;47304;47.456;19.160;2024-01-30T08:58:05;23.60;;;13.50;;
61435;SDS011;47304;47.456;19.160;2024-01-30T09:00:34;26.60;;;14.60;;
61435;SDS011;47304;47.456;19.160;2024-01-30T09:03:02;25.70;;;15.10;;
61435;SDS011;47304;47.456;19.160;2024-01-30T09:05:31;28.60;;;15.10;;
61435;SDS011;47304;47.456;19.160;2024-01-30T09:07:59;25.50;;;16.30;;
61435;SDS011;47304;47.456;19.160;2024-01-30T09:10:27;27.00;;;14.60;;
61435;SDS011;47304;47.456;19.160;2024-01-30T09:12:55;23.60;;;15.10;;
61435;SDS011;47304;47.456;19.160;2024-01-30T09:15:24;25.10;;;16.70;;
61435;SDS011;47304;47.456;19.160;2024-01-30T09:17:52;25.50;;;15.90;;
61435;SDS011;47304;47.456;19.160;2024-01-30T09:20:20;21.90;;;14.40;;
61435;SDS011;47304;47.456;19.160;2024-01-30T09:22:49;22.70;;;14.40;;
61435;SDS011;47304;47.456;19.160;2024-01-30T09:25:17;25.30;;;14.90;;
61435;SDS011;47304;47.456;19.160;2024-01-30T09:27:45;25.00;;;15.00;;
61435;SDS011;47304;47.456;19.160;2024-01-30T09:30:13;21.90;;;14.30;;
61435;SDS011;47304;47.456;19.160;2024-01-30T09:32:42;24.00;;;14.10;;
61435;SDS011;47304;47.456;19.160;2024-01-30T09:35:10;19.60;;;14.10;;
61435;SDS011;47304;47.456;19.160;2024-01-30T09:37:39;22.30;;;14.40;;
61435;SDS011;47304;47.456;19.160;2024-01-30T09:40:08;20.90;;;13.60;;
61435;SDS011;47304;47.456;19.160;2024-01-30T09:42:36;20.70;;;13.60;;
61435;SDS011;47304;47.456;19.160;2024-01-30T09:45:07;21.20;;;13.40;;
61435;SDS011;47304;47.456;19.160;2024-01-30T09:47:39;20.30;;;14.10;;
61435;SDS011;47304;47.456;19.160;2024-01-30T09:50:08;21.80;;;16.00;;
61435;SDS011;47304;47.456;19.160;2024-01-30T09:52:37;22.20;;;14.90;;
61435;SDS011;47304;47.456;19.160;2024-01-30T09:55:06;23.40;;;15.90;;
61435;SDS011;47304;47.456;19.160;2024-01-30T09:57:35;23.80;;;14.90;;
61435;SDS011;47304;47.456;19.160;2024-01-30T10:00:04;21.60;;;15.60;;
61435;SDS011;47304;47.456;19.160;2024-01-30T10:02:33;23.20;;;14.70;;
61435;SDS011;47304;47.456;19.160;2024-01-30T10:05:02;22.30;;;14.50;;
61435;SDS011;47304;47.456;19.160;2024-01-30T10:07:30;20.90;;;13.50;;
61435;SDS011;47304;47.456;19.160;2024-01-30T10:09:59;25.10;;;15.60;;
61435;SDS011;47304;47.456;19.160;2024-01-30T10:12:27;20.00;;;14.20;;
61435;SDS011;47304;47.456;19.160;2024-01-30T10:14:56;21.30;;;13.70;;
61435;SDS011;47304;47.456;19.160;2024-01-30T10:17:25;20.50;;;14.30;;
61435;SDS011;47304;47.456;19.160;2024-01-30T10:19:53;19.10;;;14.30;;
61435;SDS011;47304;47.456;19.160;2024-01-30T10:22:22;18.60;;;14.00;;
61435;SDS011;47304;47.456;19.160;2024-01-30T10:24:51;17.10;;;12.80;;
61435;SDS011;47304;47.456;19.160;2024-01-30T10:27:24;18.70;;;13.70;;
61435;SDS011;47304;47.456;19.160;2024-01-30T10:29:53;19.30;;;14.40;;
61435;SDS011;47304;47.456;19.160;2024-01-30T10:32:22;17.60;;;13.60;;
61435;SDS011;47304;47.456;19.160;2024-01-30T10:34:50;17.60;;;13.80;;
61435;SDS011;47304;47.456;19.160;2024-01-30T10:37:18;17.00;;;13.00;;
61435;SDS011;47304;47.456;19.160;2024-01-30T10:39:47;15.00;;;11.80;;
61435;SDS011;47304;47.456;19.160;2024-01-30T10:42:19;16.60;;;13.00;;
61435;SDS011;47304;47.456;19.160;2024-01-30T10:44:55;15.50;;;12.00;;
61435;SDS011;47304;47.456;19.160;2024-01-30T10:47:27;15.70;;;12.20;;
61435;SDS011;47304;47.456;19.160;2024-01-30T10:49:56;16.50;;;12.80;;
61435;SDS011;47304;47.456;19.160;2024-01-30T10:52:26;14.40;;;11.70;;
61435;SDS011;47304;47.456;19.160;2024-01-30T10:54:55;14.30;;;11.00;;
61435;SDS011;47304;47.456;19.160;2024-01-30T10:57:24;13.80;;;11.60;;
61435;SDS011;47304;47.456;19.160;2024-01-30T10:59:55;15.90;;;11.30;;
61435;SDS011;47304;47.456;19.160;2024-01-30T11:02:25;13.50;;;11.20;;
61435;SDS011;47304;47.456;19.160;2024-01-30T11:04:56;14.00;;;10.30;;
61435;SDS011;47304;47.456;19.160;2024-01-30T11:07:26;14.40;;;11.00;;
61435;SDS011;47304;47.456;19.160;2024-01-30T11:09:59;14.60;;;10.30;;
61435;SDS011;47304;47.456;19.160;2024-01-30T11:12:31;15.10;;;10.90;;
61435;SDS011;47304;47.456;19.160;2024-01-30T11:15:05;14.70;;;10.50;;
61435;SDS011;47304;47.456;19.160;2024-01-30T11:17:45;13.30;;;9.30;;
61435;SDS011;47304;47.456;19.160;2024-01-30T11:20:19;14.80;;;10.60;;
61435;SDS011;47304;47.456;19.160;2024-01-30T11:22:50;14.00;;;10.50;;
61435;SDS011;47304;47.456;19.160;2024-01-30T11:25:20;15.00;;;11.00;;
61435;SDS011;47304;47.456;19.160;2024-01-30T11:27:51;14.40;;;10.50;;
61435;SDS011;47304;47.456;19.160;2024-01-30T11:30:23;16.70;;;10.90;;
61435;SDS011;47304;47.456;19.160;2024-01-30T11:33:02;15.90;;;11.40;;
61435;SDS011;47304;47.456;19.160;2024-01-30T11:35:33;14.20;;;10.30;;
61435;SDS011;47304;47.456;19.160;2024-01-30T11:38:03;14.90;;;11.30;;
61435;SDS011;47304;47.456;19.160;2024-01-30T11:40:32;15.90;;;11.00;;
61435;SDS011;47304;47.456;19.160;2024-01-30T11:43:02;14.30;;;10.80;;
61435;SDS011;47304;47.456;19.160;2024-01-30T11:45:31;18.40;;;11.20;;
61435;SDS011;47304;47.456;19.160;2024-01-30T11:48:01;15.10;;;10.70;;
61435;SDS011;47304;47.456;19.160;2024-01-30T11:50:30;17.70;;;11.80;;
61435;SDS011;47304;47.456;19.160;2024-01-30T11:52:58;17.10;;;11.30;;
61435;SDS011;47304;47.456;19.160;2024-01-30T11:55:27;15.80;;;11.00;;
61435;SDS011;47304;47.456;19.160;2024-01-30T11:57:57;16.20;;;11.50;;
61435;SDS011;47304;47.456;19.160;2024-01-30T12:00:25;14.30;;;10.60;;
61435;SDS011;47304;47.456;19.160;2024-01-30T12:02:54;15.60;;;10.40;;
61435;SDS011;47304;47.456;19.160;2024-01-30T12:05:22;16.30;;;10.10;;
61435;SDS011;47304;47.456;19.160;2024-01-30T12:07:51;13.50;;;9.20;;
61435;SDS011;47304;47.456;19.160;2024-01-30T12:10:20;12.60;;;9.10;;
61435;SDS011;47304;47.456;19.160;2024-01-30T12:12:49;10.80;;;8.20;;
61435;SDS011;47304;47.456;19.160;2024-01-30T12:15:18;12.50;;;8.80;;
61435;SDS011;47304;47.456;19.160;2024-01-30T12:17:48;12.40;;;8.70;;
61435;SDS011;47304;47.456;19.160;2024-01-30T12:20:17;12.10;;;8.60;;
61435;SDS011;47304;47.456;19.160;2024-01-30T12:22:46;11.80;;;7.80;;
61435;SDS011;47304;47.456;19.160;2024-01-30T12:25:16;12.40;;;8.00;;
61435;SDS011;47304;47.456;19.160;2024-01-30T12:27:45;12.30;;;8.30;;
61435;SDS011;47304;47.456;19.160;2024-01-30T12:30:15;12.60;;;9.20;;
61435;SDS011;47304;47.456;19.160;2024-01-30T12:32:44;11.80;;;7.40;;
61435;SDS011;47304;47.456;19.160;2024-01-30T12:35:14;11.60;;;7.50;;
61435;SDS011;47304;47.456;19.160;2024-01-30T12:37:44;12.70;;;7.50;;
61435;SDS011;47304;47.456;19.160;2024-01-30T12:40:13;13.00;;;8.60;;
61435;SDS011;47304;47.456;19.160;2024-01-30T12:42:42;11.80;;;7.30;;
61435;SDS011;47304;47.456;19.160;2024-01-30T12:45:13;11.10;;;7.00;;
61435;SDS011;47304;47.456;19.160;2024-01-30T12:47:41;12.10;;;7.60;;
61435;SDS011;47304;47.456;19.160;2024-01-30T12:50:10;15.10;;;9.80;;
61435;SDS011;47304;47.456;19.160;2024-01-30T12:52:38;13.10;;;7.30;;
61435;SDS011;47304;47.456;19.160;2024-01-30T12:55:06;14.40;;;7.80;;
61435;SDS011;47304;47.456;19.160;2024-01-30T12:57:34;15.00;;;7.40;;
61435;SDS011;47304;47.456;19.160;2024-01-30T13:00:03;14.80;;;7.60;;
61435;SDS011;47304;47.456;19.160;2024-01-30T13:02:32;14.20;;;8.40;;
61435;SDS011;47304;47.456;19.160;2024-01-30T13:05:01;11.70;;;6.40;;
61435;SDS011;47304;47.456;19.160;2024-01-30T13:07:29;11.70;;;6.50;;
61435;SDS011;47304;47.456;19.160;2024-01-30T13:09:58;11.00;;;5.70;;
61435;SDS011;47304;47.456;19.160;2024-01-30T13:12:27;11.50;;;6.00;;
61435;SDS011;47304;47.456;19.160;2024-01-30T13:14:55;11.10;;;5.90;;
61435;SDS011;47304;47.456;19.160;2024-01-30T13:17:23;11.50;;;5.20;;
61435;SDS011;47304;47.456;19.160;2024-01-30T13:19:52;10.70;;;5.40;;
61435;SDS011;47304;47.456;19.160;2024-01-30T13:22:20;10.80;;;5.90;;
61435;SDS011;47304;47.456;19.160;2024-01-30T13:24:48;9.80;;;5.30;;
61435;SDS011;47304;47.456;19.160;2024-01-30T13:27:17;9.30;;;4.10;;
61435;SDS011;47304;47.456;19.160;2024-01-30T13:29:45;9.50;;;5.30;;
61435;SDS011;47304;47.456;19.160;2024-01-30T13:32:13;10.70;;;5.50;;
61435;SDS011;47304;47.456;19.160;2024-01-30T13:34:42;11.70;;;6.00;;
61435;SDS011;47304;47.456;19.160;2024-01-30T13:37:10;10.80;;;5.30;;
61435;SDS011;47304;47.456;19.160;2024-01-30T13:39:38;13.70;;;5.40;;
61435;SDS011;47304;47.456;19.160;2024-01-30T13:42:07;13.40;;;5.70;;
61435;SDS011;47304;47.456;19.160;2024-01-30T13:44:35;9.90;;;5.00;;
61435;SDS011;47304;47.456;19.160;2024-01-30T13:47:04;9.80;;;5.20;;
61435;SDS011;47304;47.456;19.160;2024-01-30T13:49:32;10.70;;;5.60;;
61435;SDS011;47304;47.456;19.160;2024-01-30T13:52:01;9.40;;;4.90;;
61435;SDS011;47304;47.456;19.160;2024-01-30T13:54:29;10.70;;;5.30;;
61435;SDS011;47304;47.456;19.160;2024-01-30T13:56:58;8.40;;;4.20;;
61435;SDS011;47304;47.456;19.160;2024-01-30T13:59:26;9.00;;;4.70;;
61435;SDS011;47304;47.456;19.160;2024-01-30T14:01:54;10.00;;;4.90;;
61435;SDS011;47304;47.456;19.160;2024-01-30T14:04:22;9.70;;;5.30;;
61435;SDS011;47304;47.456;19.160;2024-01-30T14:06:50;10.70;;;5.30;;
61435;SDS011;47304;47.456;19.160;2024-01-30T14:09:19;11.50;;;6.00;;
61435;SDS011;47304;47.456;19.160;2024-01-30T14:11:47;8.90;;;4.50;;
61435;SDS011;47304;47.456;19.160;2024-01-30T14:14:15;10.80;;;5.20;;
61435;SDS011;47304;47.456;19.160;2024-01-30T14:16:44;10.10;;;5.00;;
61435;SDS011;47304;47.456;19.160;2024-01-30T14:19:12;10.50;;;5.00;;